Aérodrome :
LOGIN :

S'inscrire | Disclaimer

   EN    FR    IT 

 










Légende :    VFR   VFR Marginal   IFR   IFR Intensif   IFR Très Intensif
Visi : 
Plafond : 
>= 8 km
>= 3000ft
5 à 8 km
1000 à 3000 ft
1500m à 5 km
500 à 1000 ft
800 à 1500m
200 à 500 ft
< 800m
< 200 ft
Symboles :   Orages  Brouillard  Fortes neiges  Fortes précipitations  Vent > 20 kt
SIGMETs :   Divers  Orages  Givrage  Turbulence  Onde Orograph.  Cendres Volcan.







- Altitude de l'aérodrome : 26 ft
- Code IATA : GLA
- Voir les cartes d'approche


EGPF - Glasgow

DERNIER METAR :
  • 172220Z AUTO 25008KT 9999 -RA FEW014/// SCT020/// BKN039/// //////TCU 13/12 Q1005 RERA

METARs EXPIRÉS :
  • 172150Z AUTO 27010KT 9999 -RA FEW011/// SCT017/// BKN021/// //////TCU 13/12 Q1004
  • 172120Z AUTO 23008KT 9999 -RA BKN008/// BKN020/// //////CB 15/14 Q1004 RERA REDZ
  • 172050Z AUTO 22007KT 4900 RADZ BKN008/// OVC015/// //////CB 15/15 Q1004
  • 172020Z AUTO 22004KT 180V240 4700 -RADZ OVC007/// //////TCU 15/15 Q1004
  • 171950Z AUTO 19006KT 160V240 8000 -RA BKN008/// OVC016/// //////CB 16/15 Q1004

TAF AMD TAF EGPF
Valide du 17 à 21h jusqu'au 18 à 18h UTC


172152Z 1721/1818 24009KT 9999 FEW008 SCT016
TEMPO 1721/1723 6000 RA BKN010
PROB40
TEMPO 1721/1723 4000 +RA BKN007
PROB30
TEMPO 1801/1809 8000 -SHRA BKN012
TEMPO 1809/1818 7000 SHRA
ATIS : +44 141 887 7449
Pas de NOTAMs connus pour ce terrain.



MET'MAP, la Météo Aéronautique d'un coup d'oeil ! - Copyright ORBIFLY Décembre 2007 - Disclaimer

ORBIFLY MET'MAP TEAM :

Programmation & Développement : Alexandra Zaïnal
Conception & Développement : Baudouin d'Aumeries
Co-Programmation & Développement : Marc-Olivier Méhu
Soutien technique & logistique : Manuel Goepfert

Contact : metmap@orbifly.com




SOURCES & CREDITS :

   NOAA